sensor_id;sensor_type;location;lat;lon;timestamp;P1;durP1;ratioP1;P2;durP2;ratioP2
48207;SDS011;33997;53.278;9.708;2023-04-25T00:01:03;15.98;;;8.63;;
48207;SDS011;33997;53.278;9.708;2023-04-25T00:03:30;14.77;;;8.77;;
48207;SDS011;33997;53.278;9.708;2023-04-25T00:05:56;17.65;;;8.38;;
48207;SDS011;33997;53.278;9.708;2023-04-25T00:08:23;16.20;;;8.82;;
48207;SDS011;33997;53.278;9.708;2023-04-25T00:10:49;13.45;;;7.50;;
48207;SDS011;33997;53.278;9.708;2023-04-25T00:13:15;14.23;;;7.15;;
48207;SDS011;33997;53.278;9.708;2023-04-25T00:15:42;11.00;;;7.15;;
48207;SDS011;33997;53.278;9.708;2023-04-25T00:18:07;13.57;;;7.55;;
48207;SDS011;33997;53.278;9.708;2023-04-25T00:20:33;14.05;;;6.15;;
48207;SDS011;33997;53.278;9.708;2023-04-25T00:23:00;11.63;;;5.88;;
48207;SDS011;33997;53.278;9.708;2023-04-25T00:25:26;11.75;;;5.50;;
48207;SDS011;33997;53.278;9.708;2023-04-25T00:27:51;13.85;;;5.65;;
48207;SDS011;33997;53.278;9.708;2023-04-25T00:30:17;22.48;;;5.65;;
48207;SDS011;33997;53.278;9.708;2023-04-25T00:32:42;15.38;;;5.20;;
48207;SDS011;33997;53.278;9.708;2023-04-25T00:35:08;29.80;;;5.32;;
48207;SDS011;33997;53.278;9.708;2023-04-25T00:37:34;19.77;;;5.10;;
48207;SDS011;33997;53.278;9.708;2023-04-25T00:39:59;16.27;;;4.68;;
48207;SDS011;33997;53.278;9.708;2023-04-25T00:42:25;17.98;;;5.53;;
48207;SDS011;33997;53.278;9.708;2023-04-25T00:44:51;17.95;;;4.95;;
48207;SDS011;33997;53.278;9.708;2023-04-25T00:47:18;20.73;;;5.55;;
48207;SDS011;33997;53.278;9.708;2023-04-25T00:49:44;20.08;;;5.38;;
48207;SDS011;33997;53.278;9.708;2023-04-25T00:52:10;25.08;;;5.25;;
48207;SDS011;33997;53.278;9.708;2023-04-25T00:54:36;18.95;;;5.22;;
48207;SDS011;33997;53.278;9.708;2023-04-25T00:57:01;24.20;;;5.65;;
48207;SDS011;33997;53.278;9.708;2023-04-25T00:59:28;20.15;;;5.60;;
48207;SDS011;33997;53.278;9.708;2023-04-25T01:01:55;20.00;;;5.78;;
48207;SDS011;33997;53.278;9.708;2023-04-25T01:04:21;30.10;;;6.40;;
48207;SDS011;33997;53.278;9.708;2023-04-25T01:06:46;22.25;;;4.95;;
48207;SDS011;33997;53.278;9.708;2023-04-25T01:09:13;25.80;;;5.38;;
48207;SDS011;33997;53.278;9.708;2023-04-25T01:11:38;27.17;;;5.10;;
48207;SDS011;33997;53.278;9.708;2023-04-25T01:14:05;20.88;;;5.28;;
48207;SDS011;33997;53.278;9.708;2023-04-25T01:16:31;24.60;;;5.65;;
48207;SDS011;33997;53.278;9.708;2023-04-25T01:18:57;22.67;;;5.13;;
48207;SDS011;33997;53.278;9.708;2023-04-25T01:21:24;35.03;;;5.50;;
48207;SDS011;33997;53.278;9.708;2023-04-25T01:23:52;22.20;;;5.03;;
48207;SDS011;33997;53.278;9.708;2023-04-25T01:26:18;27.50;;;5.85;;
48207;SDS011;33997;53.278;9.708;2023-04-25T01:28:46;39.15;;;6.07;;
48207;SDS011;33997;53.278;9.708;2023-04-25T01:31:12;31.73;;;5.65;;
48207;SDS011;33997;53.278;9.708;2023-04-25T01:33:38;26.08;;;5.13;;
48207;SDS011;33997;53.278;9.708;2023-04-25T01:36:04;22.35;;;4.53;;
48207;SDS011;33997;53.278;9.708;2023-04-25T01:38:30;25.27;;;6.20;;
48207;SDS011;33997;53.278;9.708;2023-04-25T01:40:56;27.13;;;5.40;;
48207;SDS011;33997;53.278;9.708;2023-04-25T01:43:22;27.40;;;6.07;;
48207;SDS011;33997;53.278;9.708;2023-04-25T01:45:48;22.85;;;5.38;;
48207;SDS011;33997;53.278;9.708;2023-04-25T01:48:15;21.15;;;4.47;;
48207;SDS011;33997;53.278;9.708;2023-04-25T01:50:41;30.98;;;5.38;;
48207;SDS011;33997;53.278;9.708;2023-04-25T01:53:06;22.77;;;4.25;;
48207;SDS011;33997;53.278;9.708;2023-04-25T01:55:34;24.27;;;4.93;;
48207;SDS011;33997;53.278;9.708;2023-04-25T01:58:01;24.88;;;4.75;;
48207;SDS011;33997;53.278;9.708;2023-04-25T02:00:28;21.40;;;4.07;;
48207;SDS011;33997;53.278;9.708;2023-04-25T02:02:53;23.85;;;5.00;;
48207;SDS011;33997;53.278;9.708;2023-04-25T02:05:22;31.67;;;4.85;;
48207;SDS011;33997;53.278;9.708;2023-04-25T02:07:47;24.02;;;4.93;;
48207;SDS011;33997;53.278;9.708;2023-04-25T02:10:13;28.35;;;4.70;;
48207;SDS011;33997;53.278;9.708;2023-04-25T02:12:39;22.70;;;4.80;;
48207;SDS011;33997;53.278;9.708;2023-04-25T02:15:05;22.40;;;4.55;;
48207;SDS011;33997;53.278;9.708;2023-04-25T02:17:31;27.67;;;5.10;;
48207;SDS011;33997;53.278;9.708;2023-04-25T02:19:57;23.15;;;4.82;;
48207;SDS011;33997;53.278;9.708;2023-04-25T02:22:22;25.30;;;5.30;;
48207;SDS011;33997;53.278;9.708;2023-04-25T02:24:48;18.48;;;4.68;;
48207;SDS011;33997;53.278;9.708;2023-04-25T02:27:13;23.85;;;4.30;;
48207;SDS011;33997;53.278;9.708;2023-04-25T02:29:39;14.48;;;4.03;;
48207;SDS011;33997;53.278;9.708;2023-04-25T02:32:04;26.85;;;4.97;;
48207;SDS011;33997;53.278;9.708;2023-04-25T02:34:30;27.10;;;4.70;;
48207;SDS011;33997;53.278;9.708;2023-04-25T02:36:55;22.13;;;5.25;;
48207;SDS011;33997;53.278;9.708;2023-04-25T02:39:21;22.75;;;4.50;;
48207;SDS011;33997;53.278;9.708;2023-04-25T02:41:47;23.67;;;5.32;;
48207;SDS011;33997;53.278;9.708;2023-04-25T02:44:12;21.63;;;3.67;;
48207;SDS011;33997;53.278;9.708;2023-04-25T02:46:38;14.35;;;3.78;;
48207;SDS011;33997;53.278;9.708;2023-04-25T02:49:03;22.27;;;4.18;;
48207;SDS011;33997;53.278;9.708;2023-04-25T02:51:30;16.10;;;3.92;;
48207;SDS011;33997;53.278;9.708;2023-04-25T02:53:55;19.20;;;4.03;;
48207;SDS011;33997;53.278;9.708;2023-04-25T02:56:20;19.80;;;3.97;;
48207;SDS011;33997;53.278;9.708;2023-04-25T02:58:46;20.70;;;3.97;;
48207;SDS011;33997;53.278;9.708;2023-04-25T03:01:11;27.83;;;4.25;;
48207;SDS011;33997;53.278;9.708;2023-04-25T03:03:37;16.67;;;3.97;;
48207;SDS011;33997;53.278;9.708;2023-04-25T03:06:02;28.75;;;4.78;;
48207;SDS011;33997;53.278;9.708;2023-04-25T03:08:28;17.85;;;4.05;;
48207;SDS011;33997;53.278;9.708;2023-04-25T03:10:57;16.15;;;3.75;;
48207;SDS011;33997;53.278;9.708;2023-04-25T03:13:23;25.35;;;4.35;;
48207;SDS011;33997;53.278;9.708;2023-04-25T03:15:49;20.27;;;4.60;;
48207;SDS011;33997;53.278;9.708;2023-04-25T03:18:15;15.90;;;3.70;;
48207;SDS011;33997;53.278;9.708;2023-04-25T03:20:40;18.33;;;4.00;;
48207;SDS011;33997;53.278;9.708;2023-04-25T03:23:06;25.85;;;3.97;;
48207;SDS011;33997;53.278;9.708;2023-04-25T03:25:32;18.98;;;4.13;;
48207;SDS011;33997;53.278;9.708;2023-04-25T03:27:57;20.70;;;3.97;;
48207;SDS011;33997;53.278;9.708;2023-04-25T03:30:23;24.17;;;4.43;;
48207;SDS011;33997;53.278;9.708;2023-04-25T03:32:48;27.45;;;4.78;;
48207;SDS011;33997;53.278;9.708;2023-04-25T03:35:14;20.92;;;4.72;;
48207;SDS011;33997;53.278;9.708;2023-04-25T03:37:39;20.48;;;4.28;;
48207;SDS011;33997;53.278;9.708;2023-04-25T03:40:05;28.63;;;4.68;;
48207;SDS011;33997;53.278;9.708;2023-04-25T03:42:31;23.45;;;4.28;;
48207;SDS011;33997;53.278;9.708;2023-04-25T03:44:57;23.05;;;4.18;;
48207;SDS011;33997;53.278;9.708;2023-04-25T03:47:22;21.10;;;4.07;;
48207;SDS011;33997;53.278;9.708;2023-04-25T03:49:48;17.35;;;4.28;;
48207;SDS011;33997;53.278;9.708;2023-04-25T03:52:16;24.23;;;4.13;;
48207;SDS011;33997;53.278;9.708;2023-04-25T03:54:42;21.90;;;4.32;;
48207;SDS011;33997;53.278;9.708;2023-04-25T03:57:07;23.00;;;4.18;;
48207;SDS011;33997;53.278;9.708;2023-04-25T03:59:33;17.23;;;3.97;;
48207;SDS011;33997;53.278;9.708;2023-04-25T04:01:58;19.85;;;4.18;;
48207;SDS011;33997;53.278;9.708;2023-04-25T04:04:23;17.25;;;4.13;;
48207;SDS011;33997;53.278;9.708;2023-04-25T04:06:49;17.25;;;4.05;;
48207;SDS011;33997;53.278;9.708;2023-04-25T04:09:15;25.20;;;4.70;;
48207;SDS011;33997;53.278;9.708;2023-04-25T04:11:41;23.95;;;4.25;;
48207;SDS011;33997;53.278;9.708;2023-04-25T04:14:07;15.98;;;4.28;;
48207;SDS011;33997;53.278;9.708;2023-04-25T04:16:33;18.40;;;3.75;;
48207;SDS011;33997;53.278;9.708;2023-04-25T04:18:58;15.70;;;3.47;;
48207;SDS011;33997;53.278;9.708;2023-04-25T04:21:24;18.20;;;4.63;;
48207;SDS011;33997;53.278;9.708;2023-04-25T04:23:49;23.55;;;4.07;;
48207;SDS011;33997;53.278;9.708;2023-04-25T04:26:15;20.35;;;4.00;;
48207;SDS011;33997;53.278;9.708;2023-04-25T04:28:41;22.30;;;3.63;;
48207;SDS011;33997;53.278;9.708;2023-04-25T04:31:08;24.00;;;4.40;;
48207;SDS011;33997;53.278;9.708;2023-04-25T04:33:34;16.02;;;3.00;;
48207;SDS011;33997;53.278;9.708;2023-04-25T04:36:01;18.42;;;2.97;;
48207;SDS011;33997;53.278;9.708;2023-04-25T04:38:27;21.33;;;3.75;;
48207;SDS011;33997;53.278;9.708;2023-04-25T04:40:53;12.75;;;3.63;;
48207;SDS011;33997;53.278;9.708;2023-04-25T04:43:19;21.05;;;3.50;;
48207;SDS011;33997;53.278;9.708;2023-04-25T04:45:45;19.05;;;4.05;;
48207;SDS011;33997;53.278;9.708;2023-04-25T04:48:10;15.55;;;3.45;;
48207;SDS011;33997;53.278;9.708;2023-04-25T04:50:39;23.77;;;3.80;;
48207;SDS011;33997;53.278;9.708;2023-04-25T04:53:05;21.70;;;3.67;;
48207;SDS011;33997;53.278;9.708;2023-04-25T04:55:30;14.80;;;3.40;;
48207;SDS011;33997;53.278;9.708;2023-04-25T04:57:56;13.70;;;3.63;;
48207;SDS011;33997;53.278;9.708;2023-04-25T05:00:21;20.08;;;3.78;;
48207;SDS011;33997;53.278;9.708;2023-04-25T05:02:47;14.80;;;3.45;;
48207;SDS011;33997;53.278;9.708;2023-04-25T05:05:12;13.02;;;3.80;;
48207;SDS011;33997;53.278;9.708;2023-04-25T05:07:38;25.60;;;3.72;;
48207;SDS011;33997;53.278;9.708;2023-04-25T05:10:04;20.10;;;3.67;;
48207;SDS011;33997;53.278;9.708;2023-04-25T05:12:30;14.27;;;3.78;;
48207;SDS011;33997;53.278;9.708;2023-04-25T05:14:55;24.17;;;4.28;;
48207;SDS011;33997;53.278;9.708;2023-04-25T05:17:21;11.05;;;2.45;;
48207;SDS011;33997;53.278;9.708;2023-04-25T05:19:46;12.38;;;2.70;;
48207;SDS011;33997;53.278;9.708;2023-04-25T05:22:12;13.63;;;3.05;;
48207;SDS011;33997;53.278;9.708;2023-04-25T05:24:37;13.98;;;3.25;;
48207;SDS011;33997;53.278;9.708;2023-04-25T05:27:03;19.10;;;3.30;;
48207;SDS011;33997;53.278;9.708;2023-04-25T05:29:28;12.65;;;3.08;;
48207;SDS011;33997;53.278;9.708;2023-04-25T05:31:54;16.50;;;3.30;;
48207;SDS011;33997;53.278;9.708;2023-04-25T05:34:19;13.07;;;3.28;;
48207;SDS011;33997;53.278;9.708;2023-04-25T05:36:45;14.52;;;3.28;;
48207;SDS011;33997;53.278;9.708;2023-04-25T05:39:13;13.18;;;2.63;;
48207;SDS011;33997;53.278;9.708;2023-04-25T05:41:39;19.25;;;3.38;;
48207;SDS011;33997;53.278;9.708;2023-04-25T05:44:05;14.93;;;2.83;;
48207;SDS011;33997;53.278;9.708;2023-04-25T05:46:30;20.02;;;3.22;;
48207;SDS011;33997;53.278;9.708;2023-04-25T05:48:56;15.52;;;2.60;;
48207;SDS011;33997;53.278;9.708;2023-04-25T05:51:21;16.38;;;3.28;;
48207;SDS011;33997;53.278;9.708;2023-04-25T05:53:47;13.63;;;2.83;;
48207;SDS011;33997;53.278;9.708;2023-04-25T05:56:12;15.25;;;2.63;;
48207;SDS011;33997;53.278;9.708;2023-04-25T05:58:38;9.80;;;2.67;;
48207;SDS011;33997;53.278;9.708;2023-04-25T06:01:03;13.35;;;2.75;;
48207;SDS011;33997;53.278;9.708;2023-04-25T06:03:29;16.50;;;3.10;;
48207;SDS011;33997;53.278;9.708;2023-04-25T06:05:55;12.73;;;2.42;;
48207;SDS011;33997;53.278;9.708;2023-04-25T06:08:21;17.02;;;3.17;;
48207;SDS011;33997;53.278;9.708;2023-04-25T06:10:46;14.07;;;2.55;;
48207;SDS011;33997;53.278;9.708;2023-04-25T06:13:12;18.55;;;2.75;;
48207;SDS011;33997;53.278;9.708;2023-04-25T06:15:37;17.52;;;3.20;;
48207;SDS011;33997;53.278;9.708;2023-04-25T06:18:03;15.50;;;3.53;;
48207;SDS011;33997;53.278;9.708;2023-04-25T06:20:28;13.98;;;2.95;;
48207;SDS011;33997;53.278;9.708;2023-04-25T06:22:54;16.50;;;2.60;;
48207;SDS011;33997;53.278;9.708;2023-04-25T06:25:19;13.40;;;3.70;;
48207;SDS011;33997;53.278;9.708;2023-04-25T06:27:45;12.20;;;2.90;;
48207;SDS011;33997;53.278;9.708;2023-04-25T06:30:10;11.95;;;2.50;;
48207;SDS011;33997;53.278;9.708;2023-04-25T06:32:40;13.70;;;2.50;;
48207;SDS011;33997;53.278;9.708;2023-04-25T06:35:05;11.30;;;2.58;;
48207;SDS011;33997;53.278;9.708;2023-04-25T06:37:31;9.80;;;2.35;;
48207;SDS011;33997;53.278;9.708;2023-04-25T06:39:56;10.52;;;2.30;;
48207;SDS011;33997;53.278;9.708;2023-04-25T06:42:22;13.27;;;2.47;;
48207;SDS011;33997;53.278;9.708;2023-04-25T06:44:47;10.10;;;2.08;;
48207;SDS011;33997;53.278;9.708;2023-04-25T06:47:13;8.57;;;2.15;;
48207;SDS011;33997;53.278;9.708;2023-04-25T06:49:39;12.48;;;2.55;;
48207;SDS011;33997;53.278;9.708;2023-04-25T06:52:05;9.43;;;2.85;;
48207;SDS011;33997;53.278;9.708;2023-04-25T06:54:30;8.13;;;2.22;;
48207;SDS011;33997;53.278;9.708;2023-04-25T06:56:56;13.23;;;2.13;;
48207;SDS011;33997;53.278;9.708;2023-04-25T06:59:21;11.50;;;2.03;;
48207;SDS011;33997;53.278;9.708;2023-04-25T07:01:47;9.93;;;2.17;;
48207;SDS011;33997;53.278;9.708;2023-04-25T07:04:13;9.65;;;1.92;;
48207;SDS011;33997;53.278;9.708;2023-04-25T07:06:38;9.73;;;2.10;;
48207;SDS011;33997;53.278;9.708;2023-04-25T07:09:07;8.70;;;2.50;;
48207;SDS011;33997;53.278;9.708;2023-04-25T07:11:34;7.20;;;1.85;;
48207;SDS011;33997;53.278;9.708;2023-04-25T07:14:00;8.20;;;1.98;;
48207;SDS011;33997;53.278;9.708;2023-04-25T07:16:26;7.85;;;1.58;;
48207;SDS011;33997;53.278;9.708;2023-04-25T07:18:51;9.57;;;1.52;;
48207;SDS011;33997;53.278;9.708;2023-04-25T07:21:17;7.50;;;1.70;;
48207;SDS011;33997;53.278;9.708;2023-04-25T07:23:42;6.38;;;1.70;;
48207;SDS011;33997;53.278;9.708;2023-04-25T07:26:08;7.72;;;1.75;;
48207;SDS011;33997;53.278;9.708;2023-04-25T07:28:33;8.57;;;1.88;;
48207;SDS011;33997;53.278;9.708;2023-04-25T07:30:59;7.50;;;1.35;;
48207;SDS011;33997;53.278;9.708;2023-04-25T07:33:24;5.05;;;1.65;;
48207;SDS011;33997;53.278;9.708;2023-04-25T07:35:50;6.85;;;1.65;;
48207;SDS011;33997;53.278;9.708;2023-04-25T07:38:15;9.68;;;1.90;;
48207;SDS011;33997;53.278;9.708;2023-04-25T07:40:41;13.00;;;2.05;;
48207;SDS011;33997;53.278;9.708;2023-04-25T07:43:06;11.30;;;1.95;;
48207;SDS011;33997;53.278;9.708;2023-04-25T07:45:32;19.55;;;2.45;;
48207;SDS011;33997;53.278;9.708;2023-04-25T07:47:57;7.20;;;1.60;;
48207;SDS011;33997;53.278;9.708;2023-04-25T07:50:23;6.88;;;1.13;;
48207;SDS011;33997;53.278;9.708;2023-04-25T07:52:48;9.63;;;1.73;;
48207;SDS011;33997;53.278;9.708;2023-04-25T07:55:14;9.15;;;2.00;;
48207;SDS011;33997;53.278;9.708;2023-04-25T07:57:39;8.82;;;1.33;;
48207;SDS011;33997;53.278;9.708;2023-04-25T08:00:05;5.75;;;1.55;;
48207;SDS011;33997;53.278;9.708;2023-04-25T08:02:34;6.10;;;1.50;;
48207;SDS011;33997;53.278;9.708;2023-04-25T08:05:03;3.97;;;1.63;;
48207;SDS011;33997;53.278;9.708;2023-04-25T08:07:28;8.98;;;1.60;;
48207;SDS011;33997;53.278;9.708;2023-04-25T08:09:54;6.30;;;1.52;;
48207;SDS011;33997;53.278;9.708;2023-04-25T08:12:20;10.82;;;1.92;;
48207;SDS011;33997;53.278;9.708;2023-04-25T08:14:45;9.05;;;2.28;;
48207;SDS011;33997;53.278;9.708;2023-04-25T08:17:10;8.73;;;2.10;;
48207;SDS011;33997;53.278;9.708;2023-04-25T08:19:36;14.30;;;2.03;;
48207;SDS011;33997;53.278;9.708;2023-04-25T08:22:02;10.63;;;1.88;;
48207;SDS011;33997;53.278;9.708;2023-04-25T08:24:28;8.88;;;2.15;;
48207;SDS011;33997;53.278;9.708;2023-04-25T08:26:53;11.80;;;2.45;;
48207;SDS011;33997;53.278;9.708;2023-04-25T08:29:19;8.10;;;2.20;;
48207;SDS011;33997;53.278;9.708;2023-04-25T08:31:44;9.77;;;2.20;;
48207;SDS011;33997;53.278;9.708;2023-04-25T08:34:10;11.68;;;2.88;;
48207;SDS011;33997;53.278;9.708;2023-04-25T08:36:36;11.80;;;2.55;;
48207;SDS011;33997;53.278;9.708;2023-04-25T08:39:02;7.00;;;1.67;;
48207;SDS011;33997;53.278;9.708;2023-04-25T08:41:27;6.15;;;1.52;;
48207;SDS011;33997;53.278;9.708;2023-04-25T08:43:53;11.07;;;1.80;;
48207;SDS011;33997;53.278;9.708;2023-04-25T08:46:21;6.55;;;1.33;;
48207;SDS011;33997;53.278;9.708;2023-04-25T08:48:48;6.03;;;1.60;;
48207;SDS011;33997;53.278;9.708;2023-04-25T08:51:21;9.93;;;2.25;;
48207;SDS011;33997;53.278;9.708;2023-04-25T08:53:51;4.55;;;1.10;;
48207;SDS011;33997;53.278;9.708;2023-04-25T08:56:17;7.35;;;1.40;;
48207;SDS011;33997;53.278;9.708;2023-04-25T08:58:45;4.97;;;1.30;;
48207;SDS011;33997;53.278;9.708;2023-04-25T09:01:12;7.45;;;1.52;;
48207;SDS011;33997;53.278;9.708;2023-04-25T09:03:38;5.82;;;1.70;;
48207;SDS011;33997;53.278;9.708;2023-04-25T09:06:03;8.52;;;1.73;;
48207;SDS011;33997;53.278;9.708;2023-04-25T09:08:29;1.75;;;0.82;;
48207;SDS011;33997;53.278;9.708;2023-04-25T09:10:55;9.65;;;1.23;;
48207;SDS011;33997;53.278;9.708;2023-04-25T09:13:24;8.73;;;1.48;;
48207;SDS011;33997;53.278;9.708;2023-04-25T09:15:52;5.72;;;1.30;;
48207;SDS011;33997;53.278;9.708;2023-04-25T09:18:23;4.57;;;1.38;;
48207;SDS011;33997;53.278;9.708;2023-04-25T09:23:16;10.18;;;1.40;;
48207;SDS011;33997;53.278;9.708;2023-04-25T09:25:45;5.05;;;1.52;;
48207;SDS011;33997;53.278;9.708;2023-04-25T09:28:16;6.88;;;1.42;;
48207;SDS011;33997;53.278;9.708;2023-04-25T09:33:12;6.03;;;1.48;;
48207;SDS011;33997;53.278;9.708;2023-04-25T09:35:39;5.15;;;1.00;;
48207;SDS011;33997;53.278;9.708;2023-04-25T09:38:09;8.00;;;1.58;;
48207;SDS011;33997;53.278;9.708;2023-04-25T09:43:09;10.35;;;1.60;;
48207;SDS011;33997;53.278;9.708;2023-04-25T09:45:43;8.52;;;1.77;;
48207;SDS011;33997;53.278;9.708;2023-04-25T09:48:12;9.48;;;1.95;;
48207;SDS011;33997;53.278;9.708;2023-04-25T09:50:42;13.77;;;1.77;;
48207;SDS011;33997;53.278;9.708;2023-04-25T09:53:08;4.78;;;1.45;;
48207;SDS011;33997;53.278;9.708;2023-04-25T09:55:33;12.40;;;2.05;;
48207;SDS011;33997;53.278;9.708;2023-04-25T09:58:01;9.75;;;1.70;;
48207;SDS011;33997;53.278;9.708;2023-04-25T10:00:31;6.22;;;1.23;;
48207;SDS011;33997;53.278;9.708;2023-04-25T10:02:57;2.65;;;0.88;;
48207;SDS011;33997;53.278;9.708;2023-04-25T10:05:28;2.95;;;1.00;;
48207;SDS011;33997;53.278;9.708;2023-04-25T10:07:56;3.20;;;0.95;;
48207;SDS011;33997;53.278;9.708;2023-04-25T10:10:24;3.45;;;1.00;;
48207;SDS011;33997;53.278;9.708;2023-04-25T10:12:52;4.35;;;1.00;;
48207;SDS011;33997;53.278;9.708;2023-04-25T10:15:19;8.88;;;1.40;;
48207;SDS011;33997;53.278;9.708;2023-04-25T10:17:44;5.53;;;1.45;;
48207;SDS011;33997;53.278;9.708;2023-04-25T10:20:10;8.93;;;1.77;;
48207;SDS011;33997;53.278;9.708;2023-04-25T10:22:39;6.47;;;1.25;;
48207;SDS011;33997;53.278;9.708;2023-04-25T10:25:07;7.68;;;1.33;;
48207;SDS011;33997;53.278;9.708;2023-04-25T10:27:34;5.55;;;1.27;;
48207;SDS011;33997;53.278;9.708;2023-04-25T10:30:03;4.60;;;1.20;;
48207;SDS011;33997;53.278;9.708;2023-04-25T10:32:35;3.53;;;0.88;;
48207;SDS011;33997;53.278;9.708;2023-04-25T10:35:12;9.43;;;1.58;;
48207;SDS011;33997;53.278;9.708;2023-04-25T10:40:23;8.73;;;1.20;;
48207;SDS011;33997;53.278;9.708;2023-04-25T10:42:49;5.13;;;1.17;;
48207;SDS011;33997;53.278;9.708;2023-04-25T10:45:18;5.38;;;0.98;;
48207;SDS011;33997;53.278;9.708;2023-04-25T10:47:44;8.50;;;1.50;;
48207;SDS011;33997;53.278;9.708;2023-04-25T10:50:10;7.35;;;1.50;;
48207;SDS011;33997;53.278;9.708;2023-04-25T10:52:38;7.63;;;1.30;;
48207;SDS011;33997;53.278;9.708;2023-04-25T10:55:05;9.57;;;2.00;;
48207;SDS011;33997;53.278;9.708;2023-04-25T11:02:47;5.25;;;1.40;;
48207;SDS011;33997;53.278;9.708;2023-04-25T11:05:17;6.55;;;1.40;;
48207;SDS011;33997;53.278;9.708;2023-04-25T11:07:51;6.93;;;1.40;;
48207;SDS011;33997;53.278;9.708;2023-04-25T11:10:19;9.07;;;1.48;;
48207;SDS011;33997;53.278;9.708;2023-04-25T11:12:45;9.02;;;1.67;;
48207;SDS011;33997;53.278;9.708;2023-04-25T11:15:12;7.20;;;1.38;;
48207;SDS011;33997;53.278;9.708;2023-04-25T11:17:38;10.18;;;1.35;;
48207;SDS011;33997;53.278;9.708;2023-04-25T11:20:05;9.65;;;1.50;;
48207;SDS011;33997;53.278;9.708;2023-04-25T11:22:36;8.68;;;1.50;;
48207;SDS011;33997;53.278;9.708;2023-04-25T11:25:06;8.07;;;1.23;;
48207;SDS011;33997;53.278;9.708;2023-04-25T11:27:54;8.60;;;1.58;;
48207;SDS011;33997;53.278;9.708;2023-04-25T11:30:22;9.15;;;1.75;;
48207;SDS011;33997;53.278;9.708;2023-04-25T11:32:48;7.20;;;1.33;;
48207;SDS011;33997;53.278;9.708;2023-04-25T11:35:15;6.22;;;1.25;;
48207;SDS011;33997;53.278;9.708;2023-04-25T11:37:41;11.80;;;1.67;;
48207;SDS011;33997;53.278;9.708;2023-04-25T11:40:07;10.20;;;1.48;;
48207;SDS011;33997;53.278;9.708;2023-04-25T11:42:35;6.22;;;1.10;;
48207;SDS011;33997;53.278;9.708;2023-04-25T11:45:08;5.85;;;1.05;;
48207;SDS011;33997;53.278;9.708;2023-04-25T11:47:34;6.95;;;1.45;;
48207;SDS011;33997;53.278;9.708;2023-04-25T11:50:00;8.32;;;1.27;;
48207;SDS011;33997;53.278;9.708;2023-04-25T11:52:40;5.20;;;1.20;;
48207;SDS011;33997;53.278;9.708;2023-04-25T11:55:12;5.60;;;1.10;;
48207;SDS011;33997;53.278;9.708;2023-04-25T11:57:42;4.97;;;1.15;;
48207;SDS011;33997;53.278;9.708;2023-04-25T12:00:13;5.75;;;1.20;;
48207;SDS011;33997;53.278;9.708;2023-04-25T12:02:42;7.63;;;1.55;;
48207;SDS011;33997;53.278;9.708;2023-04-25T12:05:09;5.13;;;1.33;;
48207;SDS011;33997;53.278;9.708;2023-04-25T12:07:35;6.47;;;1.65;;
48207;SDS011;33997;53.278;9.708;2023-04-25T12:10:07;6.17;;;0.90;;
48207;SDS011;33997;53.278;9.708;2023-04-25T12:12:34;8.20;;;1.27;;
48207;SDS011;33997;53.278;9.708;2023-04-25T12:15:11;5.93;;;1.08;;
48207;SDS011;33997;53.278;9.708;2023-04-25T12:17:40;6.75;;;1.65;;
48207;SDS011;33997;53.278;9.708;2023-04-25T12:20:10;3.53;;;1.02;;
48207;SDS011;33997;53.278;9.708;2023-04-25T12:25:05;6.88;;;1.10;;
48207;SDS011;33997;53.278;9.708;2023-04-25T12:27:32;4.65;;;1.00;;
48207;SDS011;33997;53.278;9.708;2023-04-25T12:29:58;9.70;;;1.63;;
48207;SDS011;33997;53.278;9.708;2023-04-25T12:32:24;5.80;;;1.45;;
48207;SDS011;33997;53.278;9.708;2023-04-25T12:34:50;7.60;;;1.23;;
48207;SDS011;33997;53.278;9.708;2023-04-25T12:37:16;5.50;;;0.95;;
48207;SDS011;33997;53.278;9.708;2023-04-25T12:39:41;7.00;;;1.33;;
48207;SDS011;33997;53.278;9.708;2023-04-25T12:42:07;6.63;;;1.48;;
48207;SDS011;33997;53.278;9.708;2023-04-25T12:44:38;4.97;;;1.20;;
48207;SDS011;33997;53.278;9.708;2023-04-25T12:47:03;8.43;;;1.33;;
48207;SDS011;33997;53.278;9.708;2023-04-25T12:49:30;4.85;;;1.27;;
48207;SDS011;33997;53.278;9.708;2023-04-25T12:51:56;11.90;;;2.05;;
48207;SDS011;33997;53.278;9.708;2023-04-25T12:54:21;5.95;;;1.20;;
48207;SDS011;33997;53.278;9.708;2023-04-25T12:56:46;6.13;;;1.20;;
48207;SDS011;33997;53.278;9.708;2023-04-25T12:59:12;5.65;;;1.00;;
48207;SDS011;33997;53.278;9.708;2023-04-25T13:01:38;4.85;;;1.23;;
48207;SDS011;33997;53.278;9.708;2023-04-25T13:04:03;6.15;;;1.38;;
48207;SDS011;33997;53.278;9.708;2023-04-25T13:06:29;5.25;;;1.00;;
48207;SDS011;33997;53.278;9.708;2023-04-25T13:08:57;3.80;;;1.00;;
48207;SDS011;33997;53.278;9.708;2023-04-25T13:11:23;4.88;;;1.30;;
48207;SDS011;33997;53.278;9.708;2023-04-25T13:13:48;4.57;;;1.25;;
48207;SDS011;33997;53.278;9.708;2023-04-25T13:16:14;6.18;;;1.08;;
48207;SDS011;33997;53.278;9.708;2023-04-25T13:18:40;4.93;;;1.35;;
48207;SDS011;33997;53.278;9.708;2023-04-25T13:21:05;5.22;;;1.10;;
48207;SDS011;33997;53.278;9.708;2023-04-25T13:23:31;4.05;;;1.13;;
48207;SDS011;33997;53.278;9.708;2023-04-25T13:25:56;5.57;;;1.25;;
48207;SDS011;33997;53.278;9.708;2023-04-25T13:28:23;4.22;;;1.20;;
48207;SDS011;33997;53.278;9.708;2023-04-25T13:30:49;3.75;;;1.05;;
48207;SDS011;33997;53.278;9.708;2023-04-25T13:33:15;6.82;;;1.17;;
48207;SDS011;33997;53.278;9.708;2023-04-25T13:35:41;6.28;;;1.13;;
48207;SDS011;33997;53.278;9.708;2023-04-25T13:38:06;3.85;;;1.20;;
48207;SDS011;33997;53.278;9.708;2023-04-25T13:40:32;5.03;;;1.25;;
48207;SDS011;33997;53.278;9.708;2023-04-25T13:42:58;6.35;;;1.33;;
48207;SDS011;33997;53.278;9.708;2023-04-25T13:45:24;8.43;;;1.33;;
48207;SDS011;33997;53.278;9.708;2023-04-25T13:47:49;4.22;;;1.27;;
48207;SDS011;33997;53.278;9.708;2023-04-25T13:50:15;4.10;;;1.10;;
48207;SDS011;33997;53.278;9.708;2023-04-25T13:52:41;4.97;;;1.20;;
48207;SDS011;33997;53.278;9.708;2023-04-25T13:55:07;5.22;;;1.05;;
48207;SDS011;33997;53.278;9.708;2023-04-25T13:57:33;9.32;;;1.70;;
48207;SDS011;33997;53.278;9.708;2023-04-25T13:59:59;3.42;;;0.95;;
48207;SDS011;33997;53.278;9.708;2023-04-25T14:02:29;6.63;;;1.27;;
48207;SDS011;33997;53.278;9.708;2023-04-25T14:04:55;6.53;;;1.38;;
48207;SDS011;33997;53.278;9.708;2023-04-25T14:07:20;3.85;;;0.90;;
48207;SDS011;33997;53.278;9.708;2023-04-25T14:09:46;7.68;;;1.38;;
48207;SDS011;33997;53.278;9.708;2023-04-25T14:12:12;4.63;;;1.10;;
48207;SDS011;33997;53.278;9.708;2023-04-25T14:14:37;6.50;;;1.05;;
48207;SDS011;33997;53.278;9.708;2023-04-25T14:17:03;5.88;;;1.00;;
48207;SDS011;33997;53.278;9.708;2023-04-25T14:19:28;5.85;;;1.75;;
48207;SDS011;33997;53.278;9.708;2023-04-25T14:21:54;6.38;;;1.38;;
48207;SDS011;33997;53.278;9.708;2023-04-25T14:24:20;6.22;;;1.20;;
48207;SDS011;33997;53.278;9.708;2023-04-25T14:26:46;4.40;;;1.30;;
48207;SDS011;33997;53.278;9.708;2023-04-25T14:29:11;7.20;;;2.00;;
48207;SDS011;33997;53.278;9.708;2023-04-25T14:31:37;4.72;;;1.20;;
48207;SDS011;33997;53.278;9.708;2023-04-25T14:34:06;7.82;;;1.63;;
48207;SDS011;33997;53.278;9.708;2023-04-25T14:36:32;6.82;;;1.20;;
48207;SDS011;33997;53.278;9.708;2023-04-25T14:38:58;2.85;;;1.02;;
48207;SDS011;33997;53.278;9.708;2023-04-25T14:41:25;3.95;;;0.82;;
48207;SDS011;33997;53.278;9.708;2023-04-25T14:43:51;5.75;;;1.10;;
48207;SDS011;33997;53.278;9.708;2023-04-25T14:46:17;6.80;;;1.25;;
48207;SDS011;33997;53.278;9.708;2023-04-25T14:48:43;7.25;;;1.52;;
48207;SDS011;33997;53.278;9.708;2023-04-25T14:51:08;7.10;;;1.70;;
48207;SDS011;33997;53.278;9.708;2023-04-25T14:53:34;6.47;;;1.67;;